Time;durP1;ratioP1;P1;durP2;ratioP2;P2;SDS_P1;SDS_P2;PMS_P1;PMS_P2;Temp;Humidity;BMP_temperature;BMP_pressure;BME280_temperature;BME280_humidity;BME280_pressure;Samples;Min_cycle;Max_cycle;Signal;HPM_P1;HPM_P2
2022/04/18 00:00:18;;;;;;;0.70;0.50;;;9.30;99.90;;;;;;5119041;28;20444;-55
2022/04/18 00:02:45;;;;;;;1.53;0.50;;;9.30;99.90;;;;;;5119270;28;20449;-55
2022/04/18 00:05:12;;;;;;;1.33;0.63;;;9.20;99.90;;;;;;5118879;28;20584;-52
2022/04/18 00:07:39;;;;;;;0.87;0.50;;;9.10;99.90;;;;;;5119569;28;20907;-56
2022/04/18 00:10:07;;;;;;;2.00;0.57;;;9.00;99.90;;;;;;5119146;28;20497;-55
2022/04/18 00:12:36;;;;;;;1.77;0.53;;;9.00;99.90;;;;;;5119454;28;20481;-56
2022/04/18 00:15:03;;;;;;;0.73;0.50;;;8.80;99.90;;;;;;5119257;28;20447;-53
2022/04/18 00:17:30;;;;;;;0.97;0.60;;;8.70;99.90;;;;;;5118921;28;20547;-54
2022/04/18 00:19:57;;;;;;;1.23;0.63;;;8.70;99.90;;;;;;5118567;28;20847;-53
2022/04/18 00:22:24;;;;;;;0.70;0.50;;;8.70;99.90;;;;;;5118592;28;20527;-53
2022/04/18 00:24:51;;;;;;;1.23;0.60;;;8.70;99.90;;;;;;5118406;28;20931;-53
2022/04/18 00:27:18;;;;;;;0.63;0.50;;;8.70;99.90;;;;;;5118574;28;20448;-56
2022/04/18 00:29:49;;;;;;;0.93;0.50;;;8.70;99.90;;;;;;5118745;28;20477;-55
2022/04/18 00:32:16;;;;;;;2.00;0.47;;;8.60;99.90;;;;;;5119143;28;20547;-56
2022/04/18 00:34:43;;;;;;;0.70;0.50;;;8.50;99.90;;;;;;5118946;28;20472;-57
2022/04/18 00:37:10;;;;;;;0.80;0.50;;;8.60;1.00;;;;;;5118778;28;20958;-52
2022/04/18 00:39:37;;;;;;;0.90;0.67;;;8.70;99.90;;;;;;5118690;28;20846;-53
2022/04/18 00:42:04;;;;;;;1.77;0.50;;;8.70;99.90;;;;;;5118397;28;20543;-54
2022/04/18 00:44:31;;;;;;;0.80;0.50;;;8.70;99.90;;;;;;5117898;28;21003;-55
2022/04/18 00:46:59;;;;;;;1.00;0.57;;;8.60;99.90;;;;;;5117275;28;20460;-55
2022/04/18 00:49:26;;;;;;;0.80;0.43;;;8.50;99.90;;;;;;5117507;28;20967;-52
2022/04/18 00:51:53;;;;;;;1.20;0.60;;;8.50;99.90;;;;;;5118242;28;20539;-55
2022/04/18 00:54:20;;;;;;;1.17;0.50;;;8.40;1.00;;;;;;5118500;28;20487;-51
2022/04/18 00:56:47;;;;;;;4.70;0.53;;;8.50;1.00;;;;;;5118097;28;20472;-51
2022/04/18 00:59:14;;;;;;;0.93;0.60;;;8.40;1.00;;;;;;5116521;28;20445;-51
2022/04/18 01:01:41;;;;;;;0.90;0.57;;;8.30;1.00;;;;;;5116676;28;20499;-52
2022/04/18 01:04:09;;;;;;;0.80;0.50;;;8.30;1.00;;;;;;5116925;28;20506;-55
2022/04/18 01:06:36;;;;;;;0.70;0.50;;;8.20;1.00;;;;;;5116718;28;20971;-53
2022/04/18 01:09:03;;;;;;;0.70;0.40;;;8.20;1.00;;;;;;5116470;28;20490;-55
2022/04/18 01:11:32;;;;;;;0.70;0.50;;;8.20;1.00;;;;;;5116713;28;20819;-48
2022/04/18 01:14:02;;;;;;;0.97;0.63;;;8.20;1.00;;;;;;5117168;28;20934;-51
2022/04/18 01:16:29;;;;;;;1.60;0.57;;;8.20;1.00;;;;;;5117009;28;20821;-51
2022/04/18 01:18:57;;;;;;;0.70;0.50;;;8.30;1.00;;;;;;5118382;28;20516;-50
2022/04/18 01:21:26;;;;;;;0.80;0.60;;;8.30;1.00;;;;;;5117453;28;20705;-55
2022/04/18 01:23:56;;;;;;;0.80;0.50;;;8.40;1.00;;;;;;5117734;28;20774;-52
2022/04/18 01:29:07;;;;;;;1.33;0.60;;;8.20;1.00;;;;;;5116724;28;20944;-55
2022/04/18 01:31:38;;;;;;;0.80;0.50;;;8.20;1.00;;;;;;5117533;28;20487;-51
2022/04/18 01:34:06;;;;;;;0.73;0.57;;;8.20;1.00;;;;;;5117242;28;20560;-55
2022/04/18 01:36:35;;;;;;;1.00;0.50;;;8.10;1.00;;;;;;5117222;28;20817;-55
2022/04/18 01:39:01;;;;;;;1.63;0.70;;;8.00;1.00;;;;;;5117067;28;20480;-54
2022/04/18 01:41:28;;;;;;;0.73;0.40;;;8.00;1.00;;;;;;5117609;28;20538;-54
2022/04/18 01:43:55;;;;;;;1.00;0.60;;;7.90;1.00;;;;;;5116009;28;21006;-52
2022/04/18 01:46:22;;;;;;;0.90;0.60;;;7.90;1.00;;;;;;5115543;28;20575;-51
2022/04/18 01:48:51;;;;;;;1.00;0.50;;;7.90;1.00;;;;;;5115069;28;20532;-55
2022/04/18 01:51:18;;;;;;;1.97;0.60;;;7.80;1.00;;;;;;5115286;28;20453;-54
2022/04/18 01:53:47;;;;;;;1.40;0.67;;;7.80;1.00;;;;;;5115147;28;20441;-52
2022/04/18 01:56:14;;;;;;;1.00;0.60;;;7.90;1.00;;;;;;5115790;28;20459;-52
2022/04/18 01:58:41;;;;;;;1.43;0.67;;;7.90;1.00;;;;;;5116640;28;20445;-53
2022/04/18 02:01:08;;;;;;;0.90;0.50;;;7.90;1.00;;;;;;5117098;28;20453;-53
2022/04/18 02:03:34;;;;;;;0.90;0.60;;;7.90;1.00;;;;;;5117335;28;20892;-55
2022/04/18 02:06:01;;;;;;;1.20;0.60;;;7.90;1.00;;;;;;5116830;28;20459;-53
2022/04/18 02:08:28;;;;;;;0.80;0.50;;;7.90;1.00;;;;;;5117515;28;20640;-51
2022/04/18 02:10:56;;;;;;;2.33;0.60;;;8.00;1.00;;;;;;5116864;28;20930;-53
2022/04/18 02:13:25;;;;;;;0.90;0.53;;;8.00;1.00;;;;;;5117112;28;20532;-53
2022/04/18 02:15:52;;;;;;;2.20;0.70;;;8.00;1.00;;;;;;5114984;28;20459;-53
2022/04/18 02:18:19;;;;;;;0.80;0.50;;;8.00;1.00;;;;;;5114214;28;20456;-54
2022/04/18 02:20:46;;;;;;;1.60;0.80;;;7.80;1.00;;;;;;5113928;28;20488;-51
2022/04/18 02:23:13;;;;;;;1.00;0.60;;;7.80;1.00;;;;;;5113239;28;20527;-52
2022/04/18 02:25:40;;;;;;;0.73;0.50;;;7.80;1.00;;;;;;5113304;28;21133;-53
2022/04/18 02:28:08;;;;;;;1.50;0.50;;;7.60;1.00;;;;;;5113739;28;20532;-52
2022/04/18 02:30:35;;;;;;;1.13;0.70;;;7.50;1.00;;;;;;5114965;28;20547;-54
2022/04/18 02:33:02;;;;;;;1.53;0.60;;;7.50;1.00;;;;;;5116464;28;20536;-53
2022/04/18 02:35:29;;;;;;;0.80;0.57;;;7.50;1.00;;;;;;5116436;28;20808;-54
2022/04/18 02:37:56;;;;;;;0.70;0.50;;;7.40;1.00;;;;;;5116117;28;20472;-54
2022/04/18 02:40:23;;;;;;;1.20;0.60;;;7.30;1.00;;;;;;5116125;28;20511;-50
2022/04/18 02:42:50;;;;;;;1.70;0.63;;;7.30;1.00;;;;;;5116358;28;20455;-55
2022/04/18 02:45:20;;;;;;;0.87;0.60;;;7.30;1.00;;;;;;5116047;28;20994;-51
2022/04/18 02:47:48;;;;;;;0.70;0.50;;;7.30;1.00;;;;;;5114924;28;20948;-55
2022/04/18 02:50:15;;;;;;;1.10;0.53;;;7.30;1.00;;;;;;5114610;28;20839;-55
2022/04/18 02:52:42;;;;;;;0.90;0.60;;;7.30;1.00;;;;;;5118487;28;20539;-55
2022/04/18 02:55:11;;;;;;;1.07;0.60;;;7.30;1.00;;;;;;5119563;28;20448;-55
2022/04/18 02:57:39;;;;;;;1.93;0.50;;;7.40;1.00;;;;;;5119943;28;20453;-51
2022/04/18 03:00:07;;;;;;;0.83;0.60;;;7.40;1.00;;;;;;5119569;28;20464;-55
2022/04/18 03:02:36;;;;;;;2.13;0.70;;;7.40;1.00;;;;;;5118252;28;20931;-54
2022/04/18 03:05:04;;;;;;;1.10;0.60;;;7.40;1.00;;;;;;5118414;28;20486;-51
2022/04/18 03:07:31;;;;;;;1.20;0.60;;;7.40;1.00;;;;;;5118133;28;20452;-54
2022/04/18 03:09:57;;;;;;;3.13;0.50;;;7.40;1.00;;;;;;5118517;28;20476;-54
2022/04/18 03:12:24;;;;;;;1.83;0.70;;;7.40;1.00;;;;;;5118643;28;20543;-51
2022/04/18 03:14:51;;;;;;;2.13;0.60;;;7.30;1.00;;;;;;5120386;28;20507;-50
2022/04/18 03:17:18;;;;;;;1.17;0.67;;;7.30;1.00;;;;;;5119853;28;20543;-54
2022/04/18 03:19:47;;;;;;;1.63;0.60;;;7.00;1.00;;;;;;5120110;28;20479;-52
2022/04/18 03:22:13;;;;;;;1.27;0.63;;;6.90;1.00;;;;;;5119527;28;20825;-49
2022/04/18 03:24:40;;;;;;;1.67;0.70;;;6.80;1.00;;;;;;5119676;28;20568;-53
2022/04/18 03:27:07;;;;;;;1.27;0.50;;;6.60;1.00;;;;;;5118442;28;20955;-54
2022/04/18 03:29:35;;;;;;;1.97;0.60;;;6.50;1.00;;;;;;5118557;28;20448;-54
2022/04/18 03:32:02;;;;;;;1.10;0.70;;;6.50;1.00;;;;;;5117822;28;20463;-56
2022/04/18 03:34:29;;;;;;;1.20;0.60;;;6.50;1.00;;;;;;5118213;28;20902;-55
2022/04/18 03:39:54;;;;;;;1.03;0.50;;;6.60;1.00;;;;;;5118261;28;20877;-55
2022/04/18 03:42:33;;;;;;;1.97;0.60;;;6.60;1.00;;;;;;5119625;28;20456;-52
2022/04/18 03:45:02;;;;;;;0.90;0.50;;;6.50;1.00;;;;;;5119377;28;20570;-51
2022/04/18 03:47:29;;;;;;;1.33;0.60;;;6.50;1.00;;;;;;5118543;28;20584;-55
2022/04/18 03:49:57;;;;;;;0.90;0.60;;;6.60;1.00;;;;;;5118647;28;20539;-54
2022/04/18 03:52:26;;;;;;;2.03;0.60;;;6.50;1.00;;;;;;5118299;28;20543;-53
2022/04/18 03:54:53;;;;;;;0.80;0.57;;;6.60;1.00;;;;;;5118076;28;20523;-55
2022/04/18 03:57:19;;;;;;;0.90;0.50;;;6.60;1.00;;;;;;5117568;28;20837;-52
2022/04/18 03:59:47;;;;;;;1.00;0.70;;;6.60;1.00;;;;;;5118213;28;20468;-55
2022/04/18 04:02:14;;;;;;;1.40;0.80;;;6.70;1.00;;;;;;5117978;28;20484;-52
2022/04/18 04:04:42;;;;;;;1.00;0.60;;;6.70;1.00;;;;;;5118010;28;20480;-55
2022/04/18 04:07:09;;;;;;;1.53;0.60;;;6.80;1.00;;;;;;5117880;28;20506;-52
2022/04/18 04:09:38;;;;;;;1.20;0.60;;;6.80;1.00;;;;;;5117623;28;20535;-50
2022/04/18 04:12:06;;;;;;;2.00;0.60;;;6.90;1.00;;;;;;5117763;28;20495;-50
2022/04/18 04:14:33;;;;;;;1.00;0.60;;;7.00;1.00;;;;;;5117762;28;20480;-50
2022/04/18 04:17:00;;;;;;;1.20;0.60;;;6.90;1.00;;;;;;5117489;28;20488;-52
2022/04/18 04:19:27;;;;;;;0.90;0.60;;;6.80;1.00;;;;;;5117837;28;20538;-52
2022/04/18 04:21:54;;;;;;;1.07;0.67;;;6.80;1.00;;;;;;5116662;28;20837;-53
2022/04/18 04:24:21;;;;;;;0.90;0.60;;;6.80;1.00;;;;;;5116774;28;20926;-53
2022/04/18 04:26:49;;;;;;;1.20;0.60;;;6.70;1.00;;;;;;5117442;28;20471;-53
2022/04/18 04:29:16;;;;;;;0.83;0.60;;;6.60;1.00;;;;;;5117857;28;20518;-50
2022/04/18 04:31:43;;;;;;;1.70;0.50;;;6.60;1.00;;;;;;5117477;28;20485;-55
2022/04/18 04:34:12;;;;;;;1.10;0.60;;;6.50;1.00;;;;;;5116247;28;20441;-56
2022/04/18 04:36:40;;;;;;;0.83;0.70;;;6.40;1.00;;;;;;5116582;28;20899;-56
2022/04/18 04:39:07;;;;;;;0.97;0.57;;;6.40;1.00;;;;;;5116493;28;20869;-53
2022/04/18 04:41:34;;;;;;;0.90;0.60;;;6.40;1.00;;;;;;5116517;28;20668;-53
2022/04/18 04:44:02;;;;;;;1.10;0.60;;;6.40;1.00;;;;;;5116256;28;20455;-54
2022/04/18 04:46:29;;;;;;;0.77;0.50;;;6.30;1.00;;;;;;5093147;28;148975;-50
2022/04/18 04:48:56;;;;;;;1.00;0.60;;;6.30;1.00;;;;;;5117763;28;20441;-54
2022/04/18 04:51:23;;;;;;;0.80;0.60;;;6.50;1.00;;;;;;5117998;28;20918;-52
2022/04/18 04:53:49;;;;;;;2.60;0.50;;;6.50;1.00;;;;;;5117799;28;20812;-58
2022/04/18 04:56:17;;;;;;;0.80;0.57;;;6.60;1.00;;;;;;5118084;28;20503;-51
2022/04/18 04:58:44;;;;;;;3.33;0.80;;;6.70;1.00;;;;;;5118304;28;20441;-53
2022/04/18 05:01:12;;;;;;;1.20;0.73;;;6.60;1.00;;;;;;5117988;28;20467;-55
2022/04/18 05:03:39;;;;;;;0.83;0.60;;;6.70;1.00;;;;;;5118474;28;20513;-55
2022/04/18 05:06:07;;;;;;;1.03;0.80;;;6.70;1.00;;;;;;5118304;28;20542;-53
2022/04/18 05:08:34;;;;;;;1.60;0.57;;;6.70;1.00;;;;;;5117505;28;20448;-53
2022/04/18 05:11:01;;;;;;;0.90;0.70;;;6.80;1.00;;;;;;5118204;28;20488;-52
2022/04/18 05:13:28;;;;;;;1.13;0.70;;;6.70;1.00;;;;;;5117223;28;20452;-52
2022/04/18 05:15:55;;;;;;;2.23;0.60;;;6.70;1.00;;;;;;5116279;28;20925;-52
2022/04/18 05:18:23;;;;;;;0.70;0.50;;;6.80;1.00;;;;;;5117812;28;20447;-54
2022/04/18 05:20:50;;;;;;;1.20;0.70;;;6.70;1.00;;;;;;5117751;28;20462;-52
2022/04/18 05:23:17;;;;;;;1.27;0.60;;;6.70;1.00;;;;;;5118138;28;20506;-52
2022/04/18 05:25:44;;;;;;;1.13;0.70;;;6.70;1.00;;;;;;5117038;28;20484;-53
2022/04/18 05:28:11;;;;;;;1.07;0.73;;;6.80;1.00;;;;;;5117431;28;20440;-55
2022/04/18 05:30:39;;;;;;;1.33;0.73;;;6.80;1.00;;;;;;5115582;28;20509;-52
2022/04/18 05:33:07;;;;;;;1.47;0.70;;;6.90;1.00;;;;;;5116018;28;20806;-52
2022/04/18 05:35:35;;;;;;;0.80;0.50;;;7.00;1.00;;;;;;5116648;28;20506;-52
2022/04/18 05:38:02;;;;;;;1.03;0.60;;;7.10;1.00;;;;;;5117073;28;20491;-52
2022/04/18 05:40:28;;;;;;;1.03;0.60;;;7.30;1.00;;;;;;5116157;28;20812;-55
2022/04/18 05:42:55;;;;;;;1.03;0.60;;;7.30;1.00;;;;;;5116410;28;20782;-54
2022/04/18 05:45:22;;;;;;;1.73;0.70;;;7.30;1.00;;;;;;5115505;28;20982;-54
2022/04/18 05:47:49;;;;;;;1.03;0.60;;;7.30;1.00;;;;;;5116374;28;20539;-50
2022/04/18 05:50:16;;;;;;;2.00;0.70;;;7.20;1.00;;;;;;5115769;28;20535;-54
2022/04/18 05:52:44;;;;;;;1.20;0.60;;;7.10;1.00;;;;;;5116280;28;20445;-52
2022/04/18 05:55:11;;;;;;;1.47;0.70;;;7.00;1.00;;;;;;5116457;28;20523;-54
2022/04/18 05:57:38;;;;;;;1.20;0.70;;;7.20;1.00;;;;;;5116428;28;20448;-52
2022/04/18 06:00:06;;;;;;;3.40;0.80;;;7.30;1.00;;;;;;5116256;28;20531;-53
2022/04/18 06:02:33;;;;;;;1.83;0.80;;;7.40;1.00;;;;;;5115420;28;20520;-53
2022/04/18 06:05:00;;;;;;;1.40;0.80;;;7.40;1.00;;;;;;5115579;28;20544;-50
2022/04/18 06:07:27;;;;;;;1.40;0.70;;;7.50;1.00;;;;;;5115567;28;20463;-54
2022/04/18 06:09:55;;;;;;;2.10;0.70;;;7.60;1.00;;;;;;5115455;28;20441;-48
2022/04/18 06:12:22;;;;;;;3.33;0.83;;;7.60;1.00;;;;;;5116245;28;20495;-54
2022/04/18 06:14:49;;;;;;;1.50;0.87;;;7.60;1.00;;;;;;5116056;28;20495;-50
2022/04/18 06:17:16;;;;;;;3.97;0.93;;;7.50;1.00;;;;;;5115786;28;20492;-55
2022/04/18 06:19:43;;;;;;;1.73;0.83;;;7.30;1.00;;;;;;5116164;28;20475;-50
2022/04/18 06:22:10;;;;;;;1.00;0.80;;;7.40;1.00;;;;;;5116773;28;20543;-53
2022/04/18 06:24:37;;;;;;;1.93;0.80;;;7.50;1.00;;;;;;5116199;28;20487;-52
2022/04/18 06:27:06;;;;;;;2.27;1.10;;;7.70;1.00;;;;;;5116842;28;20742;-53
2022/04/18 06:29:33;;;;;;;1.70;0.80;;;7.80;1.00;;;;;;5116271;28;20444;-55
2022/04/18 06:32:00;;;;;;;1.60;0.90;;;7.90;1.00;;;;;;5116919;28;20460;-55
2022/04/18 06:34:28;;;;;;;2.30;0.90;;;8.00;1.00;;;;;;5116329;28;20892;-56
2022/04/18 06:36:55;;;;;;;1.27;0.73;;;8.00;1.00;;;;;;5115288;28;20449;-54
2022/04/18 06:39:21;;;;;;;1.30;0.80;;;8.00;1.00;;;;;;5116491;28;20445;-56
2022/04/18 06:41:48;;;;;;;1.47;0.80;;;8.00;1.00;;;;;;5116537;28;20552;-54
2022/04/18 06:44:16;;;;;;;1.43;0.60;;;8.00;1.00;;;;;;5116216;28;20495;-55
2022/04/18 06:46:43;;;;;;;3.03;0.70;;;8.10;1.00;;;;;;5116233;28;20484;-53
2022/04/18 06:49:10;;;;;;;1.20;0.70;;;8.10;1.00;;;;;;5116589;28;20541;-53
2022/04/18 06:51:37;;;;;;;1.27;0.70;;;8.30;1.00;;;;;;5116605;28;20536;-53
2022/04/18 06:54:04;;;;;;;1.87;0.80;;;8.50;1.00;;;;;;5115465;28;20444;-51
2022/04/18 06:59:17;;;;;;;1.10;0.70;;;8.60;1.00;;;;;;5116208;28;20420;-55
2022/04/18 07:01:44;;;;;;;1.10;0.70;;;8.70;1.00;;;;;;5115542;28;20456;-51
2022/04/18 07:04:13;;;;;;;1.60;0.80;;;8.80;1.00;;;;;;5115716;28;20481;-54
2022/04/18 07:06:40;;;;;;;1.23;0.70;;;8.80;1.00;;;;;;5115306;28;20491;-56
2022/04/18 07:09:07;;;;;;;1.00;0.80;;;8.90;1.00;;;;;;5114873;28;20445;-51
2022/04/18 07:11:34;;;;;;;1.40;0.73;;;9.00;1.00;;;;;;5115408;28;20457;-54
2022/04/18 07:14:01;;;;;;;1.40;0.77;;;9.10;1.00;;;;;;5115063;28;20546;-52
2022/04/18 07:16:30;;;;;;;1.80;0.83;;;9.20;1.00;;;;;;5114543;28;20531;-54
2022/04/18 07:18:57;;;;;;;1.60;0.73;;;9.40;1.00;;;;;;5114267;28;20452;-51
2022/04/18 07:21:24;;;;;;;1.10;0.80;;;9.40;1.00;;;;;;5115349;28;20453;-52
2022/04/18 07:23:51;;;;;;;1.30;0.80;;;9.40;1.00;;;;;;5115634;28;20440;-55
2022/04/18 07:26:18;;;;;;;1.03;0.73;;;9.40;1.00;;;;;;5115418;28;20485;-52
2022/04/18 07:28:45;;;;;;;1.80;0.90;;;9.60;1.00;;;;;;5115353;28;20505;-49
2022/04/18 07:31:12;;;;;;;1.03;0.70;;;9.70;1.00;;;;;;5114657;28;20819;-50
2022/04/18 07:33:41;;;;;;;1.70;0.80;;;9.80;1.00;;;;;;5114723;28;20963;-55
2022/04/18 07:36:08;;;;;;;4.50;1.63;;;10.00;1.00;;;;;;5114920;28;20448;-52
2022/04/18 07:38:50;;;;;;;2.00;0.77;;;10.10;1.00;;;;;;5116717;28;20480;-51
2022/04/18 07:41:18;;;;;;;1.83;0.90;;;10.10;1.00;;;;;;5118935;28;20456;-57
2022/04/18 07:43:44;;;;;;;1.70;0.90;;;10.30;1.00;;;;;;5118793;28;20936;-51
2022/04/18 07:46:12;;;;;;;2.20;0.90;;;10.40;1.00;;;;;;5118950;28;20583;-54
2022/04/18 07:48:41;;;;;;;1.67;1.10;;;10.50;1.00;;;;;;5117169;28;20445;-60
2022/04/18 07:53:52;;;;;;;2.73;0.77;;;10.70;1.00;;;;;;5119413;28;20490;-52
2022/04/18 07:56:20;;;;;;;1.27;0.90;;;10.70;1.00;;;;;;5119226;28;20533;-52
2022/04/18 07:58:47;;;;;;;1.40;0.90;;;10.70;1.00;;;;;;5118765;28;20451;-53
2022/04/18 08:01:13;;;;;;;1.17;0.70;;;10.70;1.00;;;;;;5118223;28;20525;-56
2022/04/18 08:03:42;;;;;;;2.53;0.70;;;10.80;1.00;;;;;;5119192;28;20495;-55
2022/04/18 08:06:09;;;;;;;1.97;0.70;;;11.00;1.00;;;;;;5118218;28;20480;-51
2022/04/18 08:08:37;;;;;;;1.60;0.80;;;11.10;1.00;;;;;;5118117;28;20490;-53
2022/04/18 08:11:04;;;;;;;1.50;0.77;;;11.30;1.00;;;;;;5117821;28;20833;-56
2022/04/18 08:13:30;;;;;;;1.27;0.80;;;11.60;1.00;;;;;;5117059;28;20528;-54
2022/04/18 08:15:57;;;;;;;2.13;0.83;;;11.70;1.00;;;;;;5116554;28;20488;-54
2022/04/18 08:18:26;;;;;;;2.47;0.90;;;11.80;1.00;;;;;;5116522;28;20513;-55
2022/04/18 08:20:54;;;;;;;1.20;0.70;;;11.70;1.00;;;;;;5116213;28;20522;-52
2022/04/18 08:23:21;;;;;;;2.00;0.80;;;11.70;1.00;;;;;;5115774;28;20717;-55
2022/04/18 08:25:48;;;;;;;3.33;0.70;;;11.80;1.00;;;;;;5115342;28;20476;-51
2022/04/18 08:28:15;;;;;;;1.00;0.70;;;11.90;1.00;;;;;;5115288;28;20539;-55
2022/04/18 08:30:42;;;;;;;1.37;0.70;;;12.00;1.00;;;;;;5116136;28;20487;-50
2022/04/18 08:33:09;;;;;;;1.23;0.70;;;12.10;1.00;;;;;;5117457;28;20445;-58
2022/04/18 08:35:36;;;;;;;1.00;0.67;;;12.00;99.90;;;;;;5117016;28;20950;-54
2022/04/18 08:38:04;;;;;;;2.80;0.90;;;11.90;99.90;;;;;;5116675;28;20543;-56
2022/04/18 08:40:31;;;;;;;1.20;0.80;;;12.00;99.90;;;;;;5117097;28;20943;-55
2022/04/18 08:42:58;;;;;;;2.00;0.70;;;12.10;99.90;;;;;;5117700;28;20961;-54
2022/04/18 08:45:26;;;;;;;1.00;0.80;;;12.30;99.90;;;;;;5117173;28;20489;-52
2022/04/18 08:53:28;;;;;;;0.90;0.60;;;12.50;99.90;;;;;;5116000;28;20440;-49
2022/04/18 08:55:56;;;;;;;1.20;0.70;;;12.70;99.90;;;;;;5116360;28;20448;-55
2022/04/18 08:58:23;;;;;;;1.20;0.70;;;12.70;99.90;;;;;;5116826;28;20509;-56
2022/04/18 09:00:50;;;;;;;0.83;0.60;;;12.80;99.90;;;;;;5117196;28;20888;-53
2022/04/18 09:03:17;;;;;;;1.50;0.80;;;12.70;99.90;;;;;;5118050;28;20447;-54
2022/04/18 09:05:44;;;;;;;1.10;0.80;;;12.80;99.90;;;;;;5117104;28;20816;-56
2022/04/18 09:08:12;;;;;;;1.10;0.70;;;12.90;99.90;;;;;;5116487;28;20736;-53
2022/04/18 09:10:41;;;;;;;0.93;0.63;;;12.80;99.90;;;;;;5116345;28;20895;-54
2022/04/18 09:13:10;;;;;;;0.90;0.70;;;13.00;99.90;;;;;;5116018;28;20907;-54
2022/04/18 09:15:39;;;;;;;1.73;0.70;;;13.20;99.90;;;;;;5114473;28;20551;-50
2022/04/18 09:18:28;;;;;;;1.53;0.77;;;13.50;99.90;;;;;;5115833;28;20528;-54
2022/04/18 09:20:56;;;;;;;0.97;0.67;;;13.50;99.90;;;;;;5115551;28;20479;-51
2022/04/18 09:23:25;;;;;;;1.10;0.63;;;13.70;99.90;;;;;;5115622;28;20469;-56
2022/04/18 09:25:56;;;;;;;1.60;0.80;;;13.70;99.90;;;;;;5115933;28;20445;-55
2022/04/18 09:28:25;;;;;;;3.97;1.10;;;13.80;99.90;;;;;;5114099;28;20528;-54
2022/04/18 09:31:03;;;;;;;3.57;1.00;;;13.90;99.90;;;;;;5114237;28;20556;-55
2022/04/18 09:33:32;;;;;;;1.80;0.80;;;14.00;99.90;;;;;;5096492;28;20449;-52
2022/04/18 09:36:13;;;;;;;1.27;0.70;;;14.10;99.90;;;;;;5115946;28;20483;-49
2022/04/18 09:38:43;;;;;;;1.57;0.60;;;14.20;99.90;;;;;;5114581;28;20443;-50
2022/04/18 09:41:15;;;;;;;0.80;0.60;;;14.30;99.90;;;;;;5115137;28;20550;-49
2022/04/18 09:43:44;;;;;;;1.50;0.70;;;14.40;99.90;;;;;;5115743;28;20535;-54
2022/04/18 09:46:12;;;;;;;1.07;0.60;;;14.40;99.90;;;;;;5114535;28;20587;-52
2022/04/18 09:48:39;;;;;;;1.13;0.70;;;14.20;99.90;;;;;;5116622;28;20445;-49
2022/04/18 09:51:12;;;;;;;2.80;0.80;;;13.90;99.90;;;;;;5115729;28;21000;-50
2022/04/18 09:53:40;;;;;;;1.83;0.73;;;13.90;99.90;;;;;;5116337;28;20445;-51
2022/04/18 09:56:08;;;;;;;2.60;0.70;;;14.10;99.90;;;;;;5114203;28;20507;-53
2022/04/18 09:58:37;;;;;;;0.93;0.70;;;14.20;99.90;;;;;;5116196;28;20531;-52
2022/04/18 10:01:06;;;;;;;0.70;0.60;;;14.30;99.90;;;;;;5115936;28;20478;-54
2022/04/18 10:03:34;;;;;;;1.10;0.70;;;14.60;99.90;;;;;;5116642;28;20449;-53
2022/04/18 10:06:02;;;;;;;0.80;0.53;;;14.60;99.90;;;;;;5115818;28;20551;-56
2022/04/18 10:08:30;;;;;;;1.10;0.67;;;14.70;99.90;;;;;;5114623;28;20448;-55
2022/04/18 10:10:58;;;;;;;0.93;0.50;;;15.10;99.90;;;;;;5114613;28;20743;-51
2022/04/18 10:13:26;;;;;;;1.00;0.60;;;15.60;99.90;;;;;;5114413;28;20449;-53
2022/04/18 10:15:55;;;;;;;1.10;0.70;;;15.90;99.90;;;;;;5112718;28;20501;-53
2022/04/18 10:18:23;;;;;;;1.87;0.47;;;16.20;99.90;;;;;;5113700;28;20749;-53
2022/04/18 10:21:20;;;;;;;1.30;0.70;;;16.50;99.90;;;;;;5113819;28;20448;-49
2022/04/18 10:24:35;;;;;;;1.73;0.60;;;16.70;99.90;;;;;;5095607;28;20471;-55
2022/04/18 10:27:56;;;;;;;1.40;0.60;;;16.80;99.90;;;;;;5115884;28;20571;-52
2022/04/18 10:30:25;;;;;;;0.90;0.60;;;17.10;99.90;;;;;;5115565;28;20524;-52
2022/04/18 10:32:54;;;;;;;1.00;0.77;;;17.30;99.90;;;;;;5115789;28;20447;-55
2022/04/18 10:35:23;;;;;;;1.07;0.80;;;17.60;99.90;;;;;;5114931;28;20527;-54
2022/04/18 10:37:55;;;;;;;1.70;0.70;;;17.40;99.90;;;;;;5115510;28;20752;-55
2022/04/18 10:40:23;;;;;;;1.10;0.60;;;17.30;99.90;;;;;;5115635;28;20945;-56
2022/04/18 10:42:50;;;;;;;1.40;0.87;;;17.20;99.90;;;;;;5113167;28;20527;-55
2022/04/18 10:45:20;;;;;;;1.10;0.70;;;17.50;99.90;;;;;;5113409;28;20622;-53
2022/04/18 10:48:08;;;;;;;1.10;0.60;;;17.60;99.90;;;;;;5114638;28;20941;-55
2022/04/18 10:50:40;;;;;;;1.10;0.70;;;17.80;99.90;;;;;;5113346;28;20452;-54
2022/04/18 10:53:13;;;;;;;1.13;0.60;;;17.70;99.90;;;;;;5115397;28;20480;-54
2022/04/18 10:55:42;;;;;;;1.10;0.80;;;18.00;99.90;;;;;;5100035;28;20484;-55
2022/04/18 10:58:11;;;;;;;1.40;0.70;;;18.40;99.90;;;;;;5115636;28;20468;-55
2022/04/18 11:00:51;;;;;;;0.90;0.57;;;18.90;99.90;;;;;;5116196;28;20479;-56
2022/04/18 11:03:41;;;;;;;1.03;0.70;;;19.00;99.90;;;;;;5116200;28;20527;-55
2022/04/18 11:06:10;;;;;;;1.33;0.67;;;18.90;99.90;;;;;;5115432;28;20457;-56
2022/04/18 11:08:37;;;;;;;0.80;0.60;;;19.00;99.90;;;;;;5113663;28;20621;-55
2022/04/18 11:11:05;;;;;;;0.70;0.57;;;18.90;99.90;;;;;;5113893;28;20452;-56
2022/04/18 11:13:33;;;;;;;1.10;0.70;;;18.90;99.90;;;;;;5117785;28;20535;-55
2022/04/18 11:16:43;;;;;;;0.90;0.70;;;19.10;99.90;;;;;;5118236;28;20478;-54
2022/04/18 11:19:18;;;;;;;1.30;0.57;;;19.20;99.90;;;;;;5117959;28;20527;-55
2022/04/18 11:22:21;;;;;;;1.53;0.80;;;19.30;99.90;;;;;;5116309;28;20456;-55
2022/04/18 11:25:02;;;;;;;1.00;0.57;;;19.50;99.90;;;;;;5115717;28;20458;-54
2022/04/18 11:27:37;;;;;;;1.20;0.60;;;19.90;99.90;;;;;;5117383;28;20484;-53
2022/04/18 11:30:07;;;;;;;1.00;0.60;;;20.10;99.90;;;;;;5117819;28;20536;-56
2022/04/18 11:32:36;;;;;;;0.90;0.60;;;20.10;99.90;;;;;;5117385;28;20539;-56
2022/04/18 11:35:07;;;;;;;2.07;1.20;;;20.20;99.90;;;;;;5116806;28;20444;-54
2022/04/18 11:37:36;;;;;;;1.00;0.60;;;20.50;99.90;;;;;;5116772;28;20906;-54
2022/04/18 11:40:05;;;;;;;1.13;0.70;;;20.40;99.90;;;;;;5117093;28;20444;-57
2022/04/18 11:42:33;;;;;;;1.20;0.60;;;20.60;99.90;;;;;;5116222;28;20472;-53
2022/04/18 11:45:03;;;;;;;1.10;0.70;;;20.40;99.90;;;;;;5113051;28;20572;-56
2022/04/18 11:47:34;;;;;;;0.87;0.60;;;20.20;99.90;;;;;;5116418;28;20516;-55
2022/04/18 11:50:03;;;;;;;1.87;1.17;;;19.70;99.90;;;;;;5116411;28;20919;-56
2022/04/18 11:52:32;;;;;;;1.10;0.67;;;19.40;99.90;;;;;;5117699;28;20445;-55
2022/04/18 11:55:01;;;;;;;1.87;0.80;;;19.30;99.90;;;;;;5116264;28;20879;-55
2022/04/18 11:57:30;;;;;;;1.40;0.73;;;19.50;99.90;;;;;;5115909;28;20810;-54
2022/04/18 11:59:58;;;;;;;1.13;0.60;;;19.10;99.90;;;;;;5115422;28;20540;-54
2022/04/18 12:08:02;;;;;;;0.67;0.43;;;19.30;99.90;;;;;;5114708;28;20467;-56
2022/04/18 12:10:32;;;;;;;1.80;0.60;;;19.60;99.90;;;;;;5118340;28;20560;-56
2022/04/18 12:13:01;;;;;;;0.80;0.57;;;19.40;99.90;;;;;;5117027;28;20456;-58
2022/04/18 12:15:29;;;;;;;0.90;0.70;;;19.80;99.90;;;;;;5117092;28;20880;-56
2022/04/18 12:17:58;;;;;;;0.70;0.50;;;19.80;99.90;;;;;;5104915;28;20464;-55
2022/04/18 12:20:27;;;;;;;1.10;0.60;;;20.20;99.90;;;;;;5098043;28;20462;-56
2022/04/18 12:22:58;;;;;;;1.73;0.70;;;20.60;99.90;;;;;;5097279;28;20603;-55
2022/04/18 12:25:29;;;;;;;0.73;0.50;;;20.30;99.90;;;;;;5096776;28;20465;-54
2022/04/18 12:27:58;;;;;;;1.10;0.50;;;20.10;99.90;;;;;;5107465;28;20807;-57
2022/04/18 12:30:25;;;;;;;1.10;0.80;;;20.40;99.90;;;;;;5116662;28;20585;-56
2022/04/18 12:32:54;;;;;;;1.47;0.70;;;20.50;99.90;;;;;;5116088;28;20481;-56
2022/04/18 12:35:38;;;;;;;0.90;0.70;;;20.60;99.90;;;;;;5115406;28;20995;-55
2022/04/18 12:38:06;;;;;;;0.80;0.50;;;20.80;99.90;;;;;;5115753;28;20502;-57
2022/04/18 12:40:36;;;;;;;1.20;1.10;;;20.80;99.90;;;;;;5115122;28;20543;-56
2022/04/18 12:43:08;;;;;;;1.00;0.70;;;20.50;99.90;;;;;;5114262;28;20451;-56
2022/04/18 12:45:46;;;;;;;2.37;0.90;;;20.40;99.90;;;;;;5113150;28;20512;-55
2022/04/18 12:48:13;;;;;;;1.00;0.50;;;20.10;99.90;;;;;;5095811;28;20936;-56
2022/04/18 12:50:40;;;;;;;0.77;0.50;;;19.50;99.90;;;;;;5095644;28;20497;-57
2022/04/18 12:53:08;;;;;;;0.90;0.50;;;19.30;99.90;;;;;;5096109;28;20905;-56
2022/04/18 12:55:36;;;;;;;0.90;0.50;;;19.30;99.90;;;;;;5095566;28;20800;-56
2022/04/18 12:58:03;;;;;;;1.10;0.60;;;19.20;99.90;;;;;;5095334;28;20528;-57
2022/04/18 13:00:38;;;;;;;1.30;0.67;;;19.00;99.90;;;;;;5094633;28;20844;-56
2022/04/18 13:03:06;;;;;;;2.27;0.50;;;18.50;99.90;;;;;;5094633;28;20967;-55
2022/04/18 13:05:35;;;;;;;1.20;0.60;;;18.70;99.90;;;;;;5094193;28;20992;-56
2022/04/18 13:08:03;;;;;;;0.73;0.50;;;18.90;99.90;;;;;;5093430;28;20865;-57
2022/04/18 13:10:31;;;;;;;1.10;0.53;;;19.30;99.90;;;;;;5094704;28;20453;-57
2022/04/18 13:13:07;;;;;;;0.73;0.43;;;19.50;99.90;;;;;;5108152;28;21075;-54
2022/04/18 13:15:35;;;;;;;0.70;0.40;;;19.40;99.90;;;;;;5093513;28;20543;-56
2022/04/18 13:18:05;;;;;;;0.63;0.50;;;19.60;99.90;;;;;;5094072;28;20956;-55
2022/04/18 13:20:33;;;;;;;0.80;0.50;;;19.90;99.90;;;;;;5092260;28;20458;-57
2022/04/18 13:23:00;;;;;;;0.80;0.50;;;19.90;99.90;;;;;;5094064;28;20911;-57
2022/04/18 13:25:27;;;;;;;0.80;0.50;;;20.00;99.90;;;;;;5095380;28;20458;-55
2022/04/18 13:27:55;;;;;;;0.73;0.50;;;19.80;99.90;;;;;;5095350;28;20487;-57